createdAt,value
2016-11-09T00:00:03.272Z,99.99
2016-11-09T00:01:03.290Z,99.99
2016-11-09T00:02:03.302Z,99.99
2016-11-09T00:03:03.310Z,99.99
2016-11-09T00:04:03.329Z,99.99
2016-11-09T00:05:03.336Z,99.99
2016-11-09T00:06:03.352Z,99.99
2016-11-09T00:07:03.358Z,99.99
2016-11-09T00:08:03.376Z,99.99
2016-11-09T00:09:03.388Z,99.99
2016-11-09T00:10:03.401Z,99.9
2016-11-09T00:11:03.412Z,99.71
2016-11-09T00:12:03.420Z,99.71
2016-11-09T00:13:03.438Z,99.62
2016-11-09T00:14:03.455Z,99.71
2016-11-09T00:15:03.460Z,99.71
2016-11-09T00:16:03.471Z,99.24
2016-11-09T00:17:03.485Z,98.96
2016-11-09T00:18:03.499Z,98.67
2016-11-09T00:19:03.507Z,98.34
2016-11-09T00:20:03.520Z,98.25
2016-11-09T00:21:03.531Z,98.15
2016-11-09T00:22:03.547Z,98.06
2016-11-09T00:23:03.560Z,97.96
2016-11-09T00:24:03.576Z,97.96
2016-11-09T00:25:03.581Z,97.87
2016-11-09T00:26:03.600Z,97.77
2016-11-09T00:27:03.616Z,97.68
2016-11-09T00:28:03.628Z,97.77
2016-11-09T00:29:03.633Z,97.77
2016-11-09T00:30:03.651Z,97.77
2016-11-09T00:31:03.657Z,97.77
2016-11-09T00:32:03.677Z,97.68
2016-11-09T00:33:03.688Z,97.58
2016-11-09T00:34:03.698Z,97.49
2016-11-09T00:35:03.708Z,97.39
2016-11-09T00:36:03.730Z,97.11
2016-11-09T00:37:03.739Z,97.02
2016-11-09T00:38:03.746Z,96.92
2016-11-09T00:39:03.769Z,96.83
2016-11-09T00:40:03.774Z,96.45
2016-11-09T00:41:03.786Z,96.45
2016-11-09T00:42:03.802Z,96.35
2016-11-09T00:43:03.816Z,96.45
2016-11-09T00:44:03.818Z,96.54
2016-11-09T00:45:03.838Z,96.54
2016-11-09T00:46:03.850Z,96.64
2016-11-09T00:47:03.865Z,96.92
2016-11-09T00:48:03.866Z,97.02
2016-11-09T00:49:03.887Z,97.2
2016-11-09T00:50:03.892Z,97.39
2016-11-09T00:51:03.905Z,97.39
2016-11-09T00:52:03.927Z,97.3
2016-11-09T00:53:03.932Z,97.3
2016-11-09T00:54:03.943Z,97.49
2016-11-09T00:55:03.961Z,97.68
2016-11-09T00:56:03.972Z,97.58
2016-11-09T00:57:03.983Z,97.49
2016-11-09T00:58:03.996Z,97.3
2016-11-09T00:59:04.006Z,97.3
2016-11-09T01:00:04.020Z,97.39
2016-11-09T01:01:04.030Z,97.39
2016-11-09T01:02:04.047Z,97.49
2016-11-09T01:03:04.056Z,97.49
2016-11-09T01:04:04.066Z,97.58
2016-11-09T01:05:04.081Z,97.68
2016-11-09T01:06:04.097Z,97.68
2016-11-09T01:07:04.113Z,97.68
2016-11-09T01:08:04.123Z,97.68
2016-11-09T01:09:04.135Z,97.58
2016-11-09T01:10:04.151Z,97.58
2016-11-09T01:11:04.157Z,97.58
2016-11-09T01:12:04.173Z,97.68
2016-11-09T01:13:04.179Z,97.68
2016-11-09T01:14:04.203Z,97.68
2016-11-09T01:15:04.206Z,97.68
2016-11-09T01:16:04.223Z,97.68
2016-11-09T01:17:04.244Z,97.68
2016-11-09T01:18:04.247Z,97.58
2016-11-09T01:19:04.254Z,97.49
2016-11-09T01:20:04.271Z,97.58
2016-11-09T01:21:04.287Z,97.77
2016-11-09T01:22:04.299Z,97.87
2016-11-09T01:23:04.329Z,97.96
2016-11-09T01:24:04.314Z,98.15
2016-11-09T01:25:04.338Z,98.15
2016-11-09T01:26:04.352Z,98.15
2016-11-09T01:27:04.354Z,98.15
2016-11-09T01:28:04.377Z,98.06
2016-11-09T01:29:04.382Z,97.96
2016-11-09T01:30:04.400Z,97.96
2016-11-09T01:31:04.420Z,97.96
2016-11-09T01:32:04.421Z,97.96
2016-11-09T01:33:04.443Z,97.87
2016-11-09T01:34:04.441Z,97.96
2016-11-09T01:35:04.471Z,97.96
2016-11-09T01:36:04.475Z,97.77
2016-11-09T01:37:04.502Z,97.68
2016-11-09T01:38:04.504Z,97.49
2016-11-09T01:39:04.518Z,97.49
2016-11-09T01:40:04.523Z,97.39
2016-11-09T01:41:04.858Z,97.58
2016-11-09T01:42:04.540Z,97.58
2016-11-09T01:43:04.572Z,97.58
2016-11-09T01:44:04.576Z,97.58
2016-11-09T01:45:04.596Z,97.58
2016-11-09T01:46:04.600Z,97.58
2016-11-09T01:47:04.611Z,97.49
2016-11-09T01:48:04.615Z,97.58
2016-11-09T01:49:04.647Z,97.3
2016-11-09T01:50:04.641Z,97.39
2016-11-09T01:51:04.983Z,97.49
2016-11-09T01:52:04.671Z,97.68
2016-11-09T01:53:04.694Z,98.06
2016-11-09T01:54:04.694Z,98.06
2016-11-09T01:55:04.706Z,97.96
2016-11-09T01:56:04.726Z,97.96
2016-11-09T01:57:04.739Z,97.96
2016-11-09T01:58:04.751Z,97.96
2016-11-09T01:59:04.772Z,97.96
2016-11-09T02:00:04.767Z,97.96
2016-11-09T02:01:04.786Z,97.87
2016-11-09T02:02:04.794Z,97.87
2016-11-09T02:03:04.802Z,97.87
2016-11-09T02:04:04.822Z,97.87
2016-11-09T02:05:04.835Z,97.96
2016-11-09T02:06:04.851Z,97.96
2016-11-09T02:07:04.868Z,97.96
2016-11-09T02:08:04.867Z,97.96
2016-11-09T02:09:04.884Z,97.96
2016-11-09T02:10:04.897Z,97.87
2016-11-09T02:11:04.985Z,97.77
2016-11-09T02:12:04.922Z,97.77
2016-11-09T02:13:04.936Z,97.77
2016-11-09T02:14:04.948Z,97.58
2016-11-09T02:15:04.963Z,97.58
2016-11-09T02:16:04.974Z,97.68
2016-11-09T02:17:04.986Z,97.77
2016-11-09T02:18:04.992Z,97.77
2016-11-09T02:19:05.047Z,97.77
2016-11-09T02:20:05.023Z,97.68
2016-11-09T02:21:05.032Z,97.77
2016-11-09T02:22:05.045Z,97.96
2016-11-09T02:23:05.066Z,97.96
2016-11-09T02:24:05.063Z,97.96
2016-11-09T02:25:05.088Z,98.06
2016-11-09T02:26:05.090Z,97.96
2016-11-09T02:27:05.113Z,97.96
2016-11-09T02:28:05.115Z,98.06
2016-11-09T02:29:05.135Z,98.06
2016-11-09T02:30:05.148Z,98.15
2016-11-09T02:31:05.165Z,98.25
2016-11-09T02:32:05.167Z,98.29
2016-11-09T02:33:05.191Z,98.48
2016-11-09T02:34:05.188Z,98.58
2016-11-09T02:35:05.205Z,98.58
2016-11-09T02:36:05.215Z,98.58
2016-11-09T02:37:05.567Z,98.58
2016-11-09T02:38:05.241Z,98.67
2016-11-09T02:39:05.257Z,98.67
2016-11-09T02:40:05.266Z,98.77
2016-11-09T02:41:05.294Z,98.86
2016-11-09T02:42:05.300Z,98.96
2016-11-09T02:43:05.302Z,98.96
2016-11-09T02:44:05.313Z,98.96
2016-11-09T02:45:05.328Z,99.05
2016-11-09T02:46:05.336Z,98.96
2016-11-09T02:47:05.357Z,98.96
2016-11-09T02:48:05.371Z,99.05
2016-11-09T02:49:05.374Z,99.05
2016-11-09T02:50:05.433Z,99.05
2016-11-09T02:51:05.413Z,99.05
2016-11-09T02:52:05.412Z,98.96
2016-11-09T02:53:05.442Z,99.05
2016-11-09T02:54:05.479Z,99.15
2016-11-09T02:55:05.462Z,99.24
2016-11-09T02:56:05.469Z,99.33
2016-11-09T02:57:05.483Z,99.33
2016-11-09T02:58:05.487Z,99.24
2016-11-09T02:59:05.511Z,99.24
2016-11-09T03:00:05.521Z,99.24
2016-11-09T03:01:05.537Z,99.24
2016-11-09T03:02:05.540Z,99.29
2016-11-09T03:03:05.560Z,99.19
2016-11-09T03:04:05.567Z,99.29
2016-11-09T03:05:05.587Z,99.19
2016-11-09T03:06:05.588Z,99.1
2016-11-09T03:07:05.616Z,98.82
2016-11-09T03:08:05.611Z,98.82
2016-11-09T03:09:05.630Z,98.82
2016-11-09T03:10:05.647Z,98.82
2016-11-09T03:11:05.653Z,98.72
2016-11-09T03:12:05.665Z,98.72
2016-11-09T03:13:05.682Z,98.82
2016-11-09T03:14:05.684Z,98.91
2016-11-09T03:15:05.716Z,98.91
2016-11-09T03:16:05.721Z,98.91
2016-11-09T03:17:05.727Z,98.63
2016-11-09T03:18:05.739Z,98.15
2016-11-09T03:19:05.749Z,97.96
2016-11-09T03:20:05.765Z,97.96
2016-11-09T03:21:06.101Z,97.96
2016-11-09T03:22:05.797Z,97.96
2016-11-09T03:23:05.808Z,97.77
2016-11-09T03:24:05.809Z,97.77
2016-11-09T03:25:05.831Z,97.68
2016-11-09T03:26:05.832Z,97.68
2016-11-09T03:27:05.861Z,97.77
2016-11-09T03:28:05.858Z,97.96
2016-11-09T03:29:05.879Z,98.06
2016-11-09T03:30:05.888Z,98.15
2016-11-09T03:31:05.943Z,98.15
2016-11-09T03:32:05.911Z,98.15
2016-11-09T03:33:05.923Z,98.15
2016-11-09T03:34:05.935Z,98.06
2016-11-09T03:35:05.958Z,98.06
2016-11-09T03:36:05.970Z,98.06
2016-11-09T03:37:05.986Z,98.06
2016-11-09T03:38:05.991Z,97.96
2016-11-09T03:39:06.012Z,97.96
2016-11-09T03:40:06.010Z,97.87
2016-11-09T03:41:06.036Z,97.77
2016-11-09T03:42:06.042Z,97.49
2016-11-09T03:43:06.069Z,97.2
2016-11-09T03:44:06.062Z,97.11
2016-11-09T03:45:06.074Z,97.02
2016-11-09T03:46:06.090Z,97.11
2016-11-09T03:47:06.112Z,97.11
2016-11-09T03:48:06.110Z,97.11
2016-11-09T03:49:06.139Z,97.02
2016-11-09T03:50:06.142Z,97.2
2016-11-09T03:51:06.156Z,97.2
2016-11-09T03:52:06.169Z,97.39
2016-11-09T03:53:06.186Z,97.58
2016-11-09T03:54:06.190Z,97.77
2016-11-09T03:55:06.200Z,97.77
2016-11-09T03:56:06.216Z,97.77
2016-11-09T03:57:06.237Z,97.87
2016-11-09T03:58:06.238Z,97.96
2016-11-09T03:59:06.260Z,98.15
2016-11-09T04:02:06.293Z,98.15
2016-11-09T04:03:06.303Z,98.25
2016-11-09T04:04:06.320Z,98.25
2016-11-09T04:05:06.331Z,98.25
2016-11-09T04:06:06.342Z,98.25
2016-11-09T04:07:06.348Z,98.25
2016-11-09T04:08:06.364Z,98.53
2016-11-09T04:09:06.389Z,98.53
2016-11-09T04:10:06.398Z,98.53
2016-11-09T04:11:06.402Z,98.63
2016-11-09T04:12:06.415Z,98.72
2016-11-09T04:13:06.432Z,98.72
2016-11-09T04:14:06.447Z,98.91
2016-11-09T04:15:06.462Z,98.91
2016-11-09T04:16:06.476Z,98.91
2016-11-09T04:17:06.478Z,99.01
2016-11-09T04:18:06.485Z,99.1
2016-11-09T04:19:06.502Z,99.19
2016-11-09T04:20:06.520Z,99.19
2016-11-09T04:21:06.528Z,99.24
2016-11-09T04:22:06.538Z,99.24
2016-11-09T04:23:06.555Z,99.33
2016-11-09T04:24:06.574Z,99.43
2016-11-09T04:25:06.583Z,99.52
2016-11-09T04:26:06.597Z,99.8
2016-11-09T04:27:06.602Z,99.9
2016-11-09T04:28:06.616Z,99.9
2016-11-09T04:29:06.633Z,99.9
2016-11-09T04:30:06.646Z,99.9
2016-11-09T04:31:06.662Z,99.99
2016-11-09T04:32:06.669Z,99.99
2016-11-09T04:33:06.685Z,99.99
2016-11-09T04:34:06.694Z,99.99
2016-11-09T04:35:06.707Z,99.99
2016-11-09T04:36:06.716Z,99.99
2016-11-09T04:37:06.739Z,99.99
2016-11-09T04:38:06.742Z,99.99
2016-11-09T04:39:06.761Z,99.99
2016-11-09T04:40:06.761Z,99.99
2016-11-09T04:41:06.779Z,99.99
2016-11-09T04:42:06.790Z,99.99
2016-11-09T04:43:06.808Z,99.99
2016-11-09T04:44:06.822Z,99.99
2016-11-09T04:45:06.822Z,99.99
2016-11-09T04:46:06.838Z,99.99
2016-11-09T04:47:06.851Z,99.99
2016-11-09T04:48:06.861Z,99.99
2016-11-09T04:49:06.881Z,99.99
2016-11-09T04:50:06.894Z,99.99
2016-11-09T04:51:06.906Z,99.99
2016-11-09T04:52:06.951Z,99.99
2016-11-09T04:53:06.932Z,99.99
2016-11-09T04:54:06.942Z,99.99
2016-11-09T04:55:06.946Z,99.99
2016-11-09T04:56:06.961Z,99.99
2016-11-09T04:57:06.984Z,99.99
2016-11-09T04:58:06.989Z,99.99
2016-11-09T04:59:07.003Z,99.99
2016-11-09T05:00:07.011Z,99.99
2016-11-09T05:01:07.024Z,99.99
2016-11-09T05:02:07.030Z,99.99
2016-11-09T05:03:07.047Z,99.99
2016-11-09T05:04:07.054Z,99.99
2016-11-09T05:05:07.151Z,99.99
2016-11-09T05:06:07.085Z,99.99
2016-11-09T05:07:07.099Z,99.99
2016-11-09T05:08:07.104Z,99.99
2016-11-09T05:09:07.113Z,99.99
2016-11-09T05:10:07.138Z,99.99
2016-11-09T05:11:07.185Z,99.99
2016-11-09T05:12:07.156Z,99.99
2016-11-09T05:13:07.164Z,99.99
2016-11-09T05:14:07.174Z,99.99
2016-11-09T05:15:07.192Z,99.99
2016-11-09T05:16:07.202Z,99.99
2016-11-09T05:17:07.220Z,99.99
2016-11-09T05:18:07.228Z,99.99
2016-11-09T05:19:07.242Z,99.99
2016-11-09T05:20:07.248Z,99.99
2016-11-09T05:21:07.268Z,99.99
2016-11-09T05:22:07.273Z,99.99
2016-11-09T05:23:07.286Z,99.99
2016-11-09T05:24:07.296Z,99.99
2016-11-09T05:25:07.309Z,99.99
2016-11-09T05:26:07.321Z,99.99
2016-11-09T05:27:07.338Z,99.99
2016-11-09T05:28:07.340Z,99.99
2016-11-09T05:29:07.366Z,99.99
2016-11-09T05:30:07.371Z,99.99
2016-11-09T05:31:07.378Z,99.99
2016-11-09T05:32:07.389Z,99.99
2016-11-09T05:33:07.409Z,99.99
2016-11-09T05:34:07.416Z,99.99
2016-11-09T05:35:07.431Z,99.99
2016-11-09T05:36:07.445Z,99.99
2016-11-09T05:37:07.453Z,99.99
2016-11-09T05:38:07.461Z,99.99
2016-11-09T05:39:07.481Z,99.99
2016-11-09T05:40:07.487Z,99.99
2016-11-09T05:41:07.501Z,99.99
2016-11-09T05:42:07.518Z,99.99
2016-11-09T05:43:07.519Z,99.99
2016-11-09T05:44:07.537Z,99.99
2016-11-09T05:45:07.546Z,99.99
2016-11-09T05:46:07.561Z,99.99
2016-11-09T05:47:07.571Z,99.99
2016-11-09T05:48:07.597Z,99.99
2016-11-09T05:49:07.595Z,99.99
2016-11-09T05:50:07.602Z,99.99
2016-11-09T05:51:07.615Z,99.99
2016-11-09T05:52:07.627Z,99.99
2016-11-09T05:53:07.675Z,99.99
2016-11-09T05:54:07.653Z,99.99
2016-11-09T05:55:07.666Z,99.99
2016-11-09T05:56:07.676Z,99.99
2016-11-09T05:57:07.685Z,99.99
2016-11-09T05:58:07.701Z,99.99
2016-11-09T05:59:07.711Z,99.99
2016-11-09T06:00:07.723Z,99.99
2016-11-09T06:01:07.728Z,99.99
2016-11-09T06:02:07.747Z,99.99
2016-11-09T06:03:07.767Z,99.99
2016-11-09T06:04:07.768Z,99.99
2016-11-09T06:05:07.789Z,99.99
2016-11-09T06:06:07.801Z,99.99
2016-11-09T06:07:07.802Z,99.99
2016-11-09T06:08:07.821Z,99.99
2016-11-09T06:09:07.833Z,99.99
2016-11-09T06:10:07.838Z,99.99
2016-11-09T06:11:07.857Z,99.99
2016-11-09T06:12:07.864Z,99.99
2016-11-09T06:13:07.873Z,99.99
2016-11-09T06:14:07.885Z,99.99
2016-11-09T06:15:07.903Z,99.99
2016-11-09T06:16:07.912Z,99.99
2016-11-09T06:17:07.925Z,99.99
2016-11-09T06:18:07.935Z,99.99
2016-11-09T06:19:07.950Z,99.99
2016-11-09T06:20:07.964Z,99.99
2016-11-09T06:21:07.976Z,99.99
2016-11-09T06:22:07.978Z,99.99
2016-11-09T06:23:08.000Z,99.99
2016-11-09T06:24:08.004Z,99.99
2016-11-09T06:25:08.041Z,99.99
2016-11-09T06:26:08.035Z,99.99
2016-11-09T06:27:08.043Z,99.99
2016-11-09T06:28:08.057Z,99.99
2016-11-09T06:29:08.066Z,99.99
2016-11-09T06:30:08.078Z,99.99
2016-11-09T06:31:08.083Z,99.99
2016-11-09T06:32:08.100Z,99.99
2016-11-09T06:33:08.109Z,99.99
2016-11-09T06:34:08.118Z,99.99
2016-11-09T06:35:08.136Z,99.99
2016-11-09T06:36:08.143Z,99.99
2016-11-09T06:37:08.150Z,99.99
2016-11-09T06:38:08.166Z,99.99
2016-11-09T06:39:08.187Z,99.99
2016-11-09T06:40:08.192Z,99.99
2016-11-09T06:41:08.201Z,99.99
2016-11-09T06:42:08.220Z,99.99
2016-11-09T06:43:08.256Z,99.99
2016-11-09T06:44:08.235Z,99.99
2016-11-09T06:45:08.249Z,99.99
2016-11-09T06:46:08.254Z,99.99
2016-11-09T06:47:08.278Z,99.99
2016-11-09T06:48:08.281Z,99.99
2016-11-09T06:49:08.294Z,99.99
2016-11-09T06:50:08.309Z,99.99
2016-11-09T06:51:08.319Z,99.99
2016-11-09T06:52:08.335Z,99.99
2016-11-09T06:53:08.348Z,99.99
2016-11-09T06:54:08.352Z,99.99
2016-11-09T06:55:08.383Z,99.99
2016-11-09T06:56:08.380Z,99.99
2016-11-09T06:57:08.395Z,99.99
2016-11-09T06:58:08.406Z,99.99
2016-11-09T06:59:08.407Z,99.99
2016-11-09T07:00:08.430Z,99.99
2016-11-09T07:01:08.436Z,99.99
2016-11-09T07:02:08.444Z,99.99
2016-11-09T07:03:08.461Z,99.99
2016-11-09T07:04:08.472Z,99.99
2016-11-09T07:05:08.493Z,99.99
2016-11-09T07:06:08.499Z,99.99
2016-11-09T07:07:08.515Z,99.99
2016-11-09T07:08:08.525Z,99.99
2016-11-09T07:09:08.563Z,99.99
2016-11-09T07:10:08.549Z,99.99
2016-11-09T07:11:08.559Z,99.99
2016-11-09T07:12:08.577Z,99.99
2016-11-09T07:13:08.581Z,99.99
2016-11-09T07:14:08.588Z,99.99
2016-11-09T07:15:08.608Z,99.99
2016-11-09T07:16:08.609Z,99.99
2016-11-09T07:17:08.626Z,99.99
2016-11-09T07:18:08.643Z,99.99
2016-11-09T07:19:08.655Z,99.99
2016-11-09T07:20:08.667Z,99.99
2016-11-09T07:21:08.677Z,99.99
2016-11-09T07:22:08.690Z,99.99
2016-11-09T07:23:08.694Z,99.99
2016-11-09T07:24:08.709Z,99.99
2016-11-09T07:25:08.733Z,99.99
2016-11-09T07:26:08.737Z,99.99
2016-11-09T07:27:08.749Z,99.99
2016-11-09T07:28:08.757Z,99.99
2016-11-09T07:29:08.769Z,99.99
2016-11-09T07:30:08.779Z,99.99
2016-11-09T07:31:08.795Z,99.99
2016-11-09T07:32:08.805Z,99.99
2016-11-09T07:33:08.821Z,99.99
2016-11-09T07:34:08.828Z,99.99
2016-11-09T07:35:08.840Z,99.99
2016-11-09T07:36:08.853Z,99.99
2016-11-09T07:37:08.865Z,99.99
2016-11-09T07:38:08.878Z,99.99
2016-11-09T07:39:08.895Z,99.99
2016-11-09T07:40:08.901Z,99.99
2016-11-09T07:41:08.918Z,99.99
2016-11-09T07:42:08.924Z,99.99
2016-11-09T07:43:08.941Z,99.99
2016-11-09T07:44:08.952Z,99.99
2016-11-09T07:45:08.966Z,99.99
2016-11-09T07:46:08.976Z,99.99
2016-11-09T07:47:08.985Z,99.99
2016-11-09T07:48:09.001Z,99.85
2016-11-09T07:49:09.009Z,99.66
2016-11-09T07:50:09.027Z,99.19
2016-11-09T07:51:09.033Z,98.91
2016-11-09T07:52:09.049Z,98.82
2016-11-09T07:53:09.065Z,98.53
2016-11-09T07:54:09.070Z,97.87
2016-11-09T07:55:09.089Z,97.58
2016-11-09T07:56:09.101Z,97.49
2016-11-09T07:57:09.107Z,97.3
2016-11-09T07:58:09.129Z,97.11
2016-11-09T07:59:09.133Z,96.73
2016-11-09T08:00:09.147Z,96.64
2016-11-09T08:01:09.158Z,96.4
2016-11-09T08:02:09.167Z,96.21
2016-11-09T08:03:09.184Z,96.12
2016-11-09T08:04:09.199Z,95.83
2016-11-09T08:05:09.207Z,95.36
2016-11-09T08:06:09.223Z,95.07
2016-11-09T08:07:09.243Z,94.89
2016-11-09T08:08:09.248Z,94.32
2016-11-09T08:09:09.262Z,94.23
2016-11-09T08:10:09.274Z,94.04
2016-11-09T08:11:09.322Z,93.75
2016-11-09T08:12:09.304Z,93.37
2016-11-09T08:13:09.310Z,93.18
2016-11-09T08:14:09.343Z,93.32
2016-11-09T08:15:09.347Z,93.51
2016-11-09T08:16:09.353Z,93.42
2016-11-09T08:17:09.374Z,93.13
2016-11-09T08:18:09.379Z,93.18
2016-11-09T08:19:09.395Z,93.18
2016-11-09T08:20:09.409Z,93.37
2016-11-09T08:21:09.422Z,93.56
2016-11-09T08:22:09.447Z,93.65
2016-11-09T08:23:09.447Z,93.65
2016-11-09T08:24:09.456Z,93.65
2016-11-09T08:25:09.473Z,93.75
2016-11-09T08:26:09.486Z,93.84
2016-11-09T08:27:09.496Z,93.84
2016-11-09T08:28:09.506Z,93.75
2016-11-09T08:29:09.525Z,93.75
2016-11-09T08:30:09.534Z,93.37
2016-11-09T08:31:09.555Z,93.32
2016-11-09T08:32:09.567Z,93.23
2016-11-09T08:33:09.577Z,92.94
2016-11-09T08:34:09.588Z,92.66
2016-11-09T08:35:09.604Z,92.47
2016-11-09T08:36:09.613Z,92.38
2016-11-09T08:37:09.633Z,92.28
2016-11-09T08:38:09.645Z,92.28
2016-11-09T08:39:09.663Z,92.09
2016-11-09T08:40:09.675Z,91.9
2016-11-09T08:41:09.681Z,91.43
2016-11-09T08:42:09.702Z,91.33
2016-11-09T08:43:09.714Z,91.43
2016-11-09T08:44:09.727Z,91.71
2016-11-09T08:45:09.729Z,92.09
2016-11-09T08:46:09.794Z,92.28
2016-11-09T08:47:09.804Z,92.66
2016-11-09T08:48:09.803Z,92.94
2016-11-09T08:49:09.801Z,93.23
2016-11-09T08:50:09.811Z,93.13
2016-11-09T08:51:09.817Z,93.23
2016-11-09T08:52:09.824Z,93.23
2016-11-09T08:53:09.845Z,93.42
2016-11-09T08:54:09.855Z,93.51
2016-11-09T08:55:09.874Z,93.61
2016-11-09T08:56:09.884Z,93.7
2016-11-09T08:57:09.969Z,93.8
2016-11-09T08:58:09.904Z,93.89
2016-11-09T08:59:09.923Z,93.99
2016-11-09T09:00:09.936Z,93.99
2016-11-09T09:01:09.946Z,94.08
2016-11-09T09:02:09.958Z,94.18
2016-11-09T09:03:09.975Z,94.23
2016-11-09T09:04:09.991Z,94.32
2016-11-09T09:05:10.001Z,94.46
2016-11-09T09:06:10.013Z,94.46
2016-11-09T09:07:10.025Z,94.37
2016-11-09T09:08:10.043Z,94.37
2016-11-09T09:09:10.057Z,94.37
2016-11-09T09:10:10.066Z,94.27
2016-11-09T09:11:10.079Z,93.99
2016-11-09T09:12:10.088Z,93.51
2016-11-09T09:13:10.105Z,93.23
2016-11-09T09:14:10.117Z,93.13
2016-11-09T09:15:10.137Z,93.04
2016-11-09T09:16:10.147Z,92.85
2016-11-09T09:17:10.165Z,92.76
2016-11-09T09:18:10.167Z,92.57
2016-11-09T09:19:10.192Z,92.38
2016-11-09T09:20:10.203Z,92.14
2016-11-09T09:21:10.210Z,91.76
2016-11-09T09:22:10.229Z,91.47
2016-11-09T09:23:10.238Z,91.09
2016-11-09T09:24:10.255Z,90.81
2016-11-09T09:25:10.267Z,90.72
2016-11-09T09:26:10.280Z,90.62
2016-11-09T09:27:10.297Z,90.53
2016-11-09T09:28:10.308Z,90.53
2016-11-09T09:29:10.325Z,90.34
2016-11-09T09:30:10.333Z,90.24
2016-11-09T09:31:10.353Z,90.24
2016-11-09T09:32:10.360Z,90.15
2016-11-09T09:33:10.380Z,89.96
2016-11-09T09:34:10.392Z,89.58
2016-11-09T09:35:10.417Z,89.2
2016-11-09T09:36:10.412Z,89.01
2016-11-09T09:37:10.434Z,89.2
2016-11-09T09:38:10.447Z,89.39
2016-11-09T09:39:10.465Z,89.58
2016-11-09T09:40:10.467Z,89.77
2016-11-09T09:41:10.487Z,89.96
2016-11-09T09:42:10.583Z,90.05
2016-11-09T09:43:10.517Z,90.15
2016-11-09T09:44:10.529Z,90.34
2016-11-09T09:45:10.540Z,90.34
2016-11-09T09:46:10.550Z,90.43
2016-11-09T09:47:10.572Z,90.53
2016-11-09T09:48:10.577Z,90.62
2016-11-09T09:49:10.602Z,90.81
2016-11-09T09:50:10.611Z,90.62
2016-11-09T09:51:10.656Z,90.53
2016-11-09T09:52:10.630Z,90.43
2016-11-09T09:53:10.652Z,90.24
2016-11-09T09:54:10.667Z,89.77
2016-11-09T09:55:10.673Z,89.58
2016-11-09T09:56:10.695Z,89.2
2016-11-09T09:57:10.704Z,89.06
2016-11-09T09:58:10.719Z,88.77
2016-11-09T09:59:10.725Z,88.77
2016-11-09T10:00:10.751Z,88.77
2016-11-09T10:01:10.767Z,88.68
2016-11-09T10:02:10.771Z,88.48
2016-11-09T10:03:10.793Z,88.29
2016-11-09T10:04:10.808Z,88.1
2016-11-09T10:05:10.818Z,88.01
2016-11-09T10:06:10.827Z,87.82
2016-11-09T10:07:10.848Z,87.63
2016-11-09T10:08:10.864Z,87.92
2016-11-09T10:09:10.871Z,88.2
2016-11-09T10:10:10.882Z,88.39
2016-11-09T10:11:10.897Z,88.48
2016-11-09T10:12:10.921Z,88.48
2016-11-09T10:13:10.926Z,87.73
2016-11-09T10:14:10.948Z,87.25
2016-11-09T10:15:10.961Z,87.45
2016-11-09T10:16:10.967Z,87.54
2016-11-09T10:17:10.983Z,87.54
2016-11-09T10:18:11.005Z,87.63
2016-11-09T10:19:11.015Z,87.82
2016-11-09T10:20:11.029Z,88.01
2016-11-09T10:21:11.035Z,88.1
2016-11-09T10:22:11.054Z,88.29
2016-11-09T10:23:11.071Z,88.58
2016-11-09T10:24:11.085Z,88.82
2016-11-09T10:25:11.092Z,89.11
2016-11-09T10:26:11.111Z,89.39
2016-11-09T10:27:11.129Z,89.77
2016-11-09T10:28:11.137Z,90.15
2016-11-09T10:29:11.160Z,90.34
2016-11-09T10:30:11.166Z,90.43
2016-11-09T10:31:11.191Z,90.53
2016-11-09T10:32:11.197Z,90.81
2016-11-09T10:33:11.203Z,90.91
2016-11-09T10:34:11.223Z,91
2016-11-09T10:35:11.272Z,91
2016-11-09T10:36:11.252Z,90.91
2016-11-09T10:37:11.279Z,90.91
2016-11-09T10:38:11.272Z,90.91
2016-11-09T10:39:11.291Z,90.43
2016-11-09T10:40:11.309Z,90.15
2016-11-09T10:41:11.319Z,89.96
2016-11-09T10:42:11.338Z,89.91
2016-11-09T10:43:11.341Z,89.81
2016-11-09T10:44:11.365Z,89.53
2016-11-09T10:45:11.381Z,89.53
2016-11-09T10:46:11.395Z,89.58
2016-11-09T10:47:11.400Z,89.77
2016-11-09T10:48:11.414Z,89.86
2016-11-09T10:49:11.432Z,89.96
2016-11-09T10:50:11.443Z,90.15
2016-11-09T10:51:11.456Z,90.15
2016-11-09T10:52:11.468Z,90.15
2016-11-09T10:53:11.481Z,90.05
2016-11-09T10:54:11.507Z,90.24
2016-11-09T10:55:11.512Z,90.43
2016-11-09T10:56:11.522Z,90.53
2016-11-09T10:57:11.575Z,90.53
2016-11-09T10:58:11.555Z,90.72
2016-11-09T10:59:11.576Z,91
2016-11-09T11:00:11.584Z,91.19
2016-11-09T11:01:11.601Z,91.38
2016-11-09T11:02:11.613Z,91.38
2016-11-09T11:03:11.628Z,91.47
2016-11-09T11:04:11.640Z,91.38
2016-11-09T11:05:11.649Z,91.47
2016-11-09T11:06:11.667Z,91.57
2016-11-09T11:07:11.684Z,91.76
2016-11-09T11:08:11.694Z,91.85
2016-11-09T11:09:11.708Z,91.95
2016-11-09T11:10:11.722Z,91.76
2016-11-09T11:11:11.735Z,91.76
2016-11-09T11:12:11.740Z,91.76
2016-11-09T11:13:11.763Z,91.95
2016-11-09T11:14:11.807Z,91.76
2016-11-09T11:15:11.792Z,91.57
2016-11-09T11:16:11.806Z,91.66
2016-11-09T11:17:11.813Z,91.76
2016-11-09T11:18:11.830Z,91.66
2016-11-09T11:19:11.846Z,91.66
2016-11-09T11:20:11.857Z,91.76
2016-11-09T11:21:11.869Z,91.76
2016-11-09T11:22:11.925Z,91.76
2016-11-09T11:23:11.895Z,91.66
2016-11-09T11:24:11.911Z,91.85
2016-11-09T11:25:11.922Z,91.76
2016-11-09T11:26:11.942Z,91.47
2016-11-09T11:27:11.951Z,91.38
2016-11-09T11:28:11.968Z,91.28
2016-11-09T11:29:11.982Z,91.09
2016-11-09T11:30:11.998Z,91.14
2016-11-09T11:31:12.012Z,91.24
2016-11-09T11:32:12.029Z,91.42
2016-11-09T11:33:12.037Z,91.42
2016-11-09T11:34:12.042Z,91.14
2016-11-09T11:35:12.068Z,90.86
2016-11-09T11:36:12.083Z,90.86
2016-11-09T11:37:12.094Z,90.57
2016-11-09T11:38:12.109Z,90.38
2016-11-09T11:39:12.119Z,90.29
2016-11-09T11:40:12.136Z,90.19
2016-11-09T11:41:12.147Z,90.29
2016-11-09T11:42:12.158Z,90.38
2016-11-09T11:43:12.179Z,90.19
2016-11-09T11:44:12.185Z,90.29
2016-11-09T11:45:12.209Z,90.38
2016-11-09T11:46:12.216Z,90.38
2016-11-09T11:47:12.238Z,90.19
2016-11-09T11:48:12.247Z,90
2016-11-09T11:49:12.264Z,89.81
2016-11-09T11:50:12.266Z,89.81
2016-11-09T11:51:12.284Z,89.62
2016-11-09T11:52:12.300Z,89.25
2016-11-09T11:53:12.319Z,89.53
2016-11-09T11:54:12.331Z,89.81
2016-11-09T11:55:12.342Z,90.1
2016-11-09T11:56:12.355Z,90
2016-11-09T11:57:12.375Z,90
2016-11-09T11:58:12.381Z,90
2016-11-09T11:59:12.397Z,89.72
2016-11-09T12:00:12.410Z,89.62
2016-11-09T12:01:12.432Z,89.62
2016-11-09T12:02:12.438Z,89.72
2016-11-09T12:03:12.450Z,89.91
2016-11-09T12:04:12.470Z,90
2016-11-09T12:05:12.483Z,90.19
2016-11-09T12:06:12.498Z,90.19
2016-11-09T12:07:12.511Z,90
2016-11-09T12:08:12.528Z,90.1
2016-11-09T12:09:12.539Z,90.1
2016-11-09T12:10:12.560Z,90.29
2016-11-09T12:11:12.571Z,90.19
2016-11-09T12:12:12.584Z,90.19
2016-11-09T12:13:12.594Z,90.29
2016-11-09T12:14:12.611Z,90.29
2016-11-09T12:15:12.619Z,90.38
2016-11-09T12:16:12.642Z,90.86
2016-11-09T12:17:12.652Z,91.14
2016-11-09T12:18:12.662Z,91.14
2016-11-09T12:19:12.677Z,91.24
2016-11-09T12:20:12.694Z,91.42
2016-11-09T12:21:12.702Z,91.99
2016-11-09T12:22:12.717Z,92.18
2016-11-09T12:23:12.735Z,91.9
2016-11-09T12:24:12.746Z,91.61
2016-11-09T12:25:12.758Z,91.52
2016-11-09T12:26:12.776Z,91.61
2016-11-09T12:27:12.789Z,91.8
2016-11-09T12:28:12.809Z,91.8
2016-11-09T12:29:12.820Z,92.09
2016-11-09T12:30:12.840Z,92.28
2016-11-09T12:31:12.842Z,92.76
2016-11-09T12:32:12.861Z,92.94
2016-11-09T12:33:12.872Z,93.32
2016-11-09T12:34:12.896Z,93.51
2016-11-09T12:35:12.900Z,93.7
2016-11-09T12:36:12.915Z,93.13
2016-11-09T12:37:12.939Z,92.76
2016-11-09T12:38:12.943Z,92.47
2016-11-09T12:39:12.956Z,92.66
2016-11-09T12:40:13.012Z,93.04
2016-11-09T12:41:12.987Z,92.85
2016-11-09T12:42:13.004Z,92.94
2016-11-09T12:43:13.020Z,93.27
2016-11-09T12:44:13.033Z,93.56
2016-11-09T12:45:13.039Z,93.75
2016-11-09T12:46:13.056Z,94.04
2016-11-09T12:47:13.067Z,94.04
2016-11-09T12:48:13.093Z,93.94
2016-11-09T12:49:13.094Z,93.84
2016-11-09T12:50:13.114Z,94.04
2016-11-09T12:51:13.128Z,94.04
2016-11-09T12:52:13.137Z,93.84
2016-11-09T12:53:13.149Z,93.65
2016-11-09T12:54:13.241Z,93.65
2016-11-09T12:55:13.180Z,93.46
2016-11-09T12:56:13.193Z,93.65